Time;durP1;ratioP1;P1;durP2;ratioP2;P2;SDS_P1;SDS_P2;PMS_P1;PMS_P2;Temp;Humidity;BMP_temperature;BMP_pressure;BME280_temperature;BME280_humidity;BME280_pressure;Samples;Min_cycle;Max_cycle;Signal;HPM_P1;HPM_P2
2023/06/09 00:00:07;;;;;;;9.60;3.20;;;;;;;19.69;57.79;101486.94;5019591;28;20053;-68
2023/06/09 00:02:33;;;;;;;11.18;3.60;;;;;;;19.65;57.78;101487.50;5020023;28;20544;-68
2023/06/09 00:05:00;;;;;;;10.45;3.17;;;;;;;19.56;58.73;101482.31;5019188;28;20052;-68
2023/06/09 00:07:27;;;;;;;7.50;3.40;;;;;;;19.56;58.49;101479.66;5024737;28;20076;-70
2023/06/09 00:09:53;;;;;;;8.20;3.20;;;;;;;19.53;58.44;101488.00;5025581;28;20057;-69
2023/06/09 00:12:20;;;;;;;10.88;3.65;;;;;;;19.51;58.36;101476.75;5011670;28;20046;-71
2023/06/09 00:14:46;;;;;;;9.18;3.63;;;;;;;19.45;58.44;101474.03;5011950;28;20506;-70
2023/06/09 00:17:13;;;;;;;6.00;3.42;;;;;;;19.41;58.68;101478.06;5017980;28;20076;-70
2023/06/09 00:19:41;;;;;;;10.03;3.37;;;;;;;19.41;58.16;101473.56;5024092;28;20060;-70
2023/06/09 00:22:13;;;;;;;10.00;3.40;;;;;;;19.36;58.82;101478.63;5015663;28;20565;-69
2023/06/09 00:24:40;;;;;;;8.07;3.42;;;;;;;19.26;59.39;101478.94;5021076;28;20053;-69
2023/06/09 00:27:08;;;;;;;7.57;3.20;;;;;;;19.22;59.38;101475.00;5015468;28;20127;-70
2023/06/09 00:29:35;;;;;;;11.90;3.47;;;;;;;19.20;58.88;101463.72;5015909;28;20057;-69
2023/06/09 00:32:02;;;;;;;14.65;3.63;;;;;;;19.23;59.19;101467.84;5024005;28;20050;-69
2023/06/09 00:34:29;;;;;;;9.18;3.40;;;;;;;19.12;59.93;101462.00;5015405;28;20156;-70
2023/06/09 00:36:56;;;;;;;11.57;4.03;;;;;;;19.02;60.71;101477.44;5022818;28;20492;-69
2023/06/09 00:39:22;;;;;;;12.68;3.10;;;;;;;19.00;59.81;101471.47;5011486;28;20065;-71
2023/06/09 00:41:49;;;;;;;7.88;3.45;;;;;;;18.93;60.76;101459.94;5017230;28;20144;-71
2023/06/09 00:44:16;;;;;;;6.72;2.72;;;;;;;18.94;59.93;101462.41;5016653;28;20053;-71
2023/06/09 00:46:42;;;;;;;10.05;3.00;;;;;;;18.92;59.96;101459.13;5015268;28;20421;-70
2023/06/09 00:49:09;;;;;;;14.10;3.80;;;;;;;18.86;60.38;101459.84;5008751;28;20088;-70
2023/06/09 00:51:36;;;;;;;10.55;3.53;;;;;;;18.80;61.20;101459.75;4999567;28;20049;-71
2023/06/09 00:54:04;;;;;;;12.27;3.53;;;;;;;18.74;61.45;101466.63;5020341;28;20316;-71
2023/06/09 00:56:32;;;;;;;8.15;3.38;;;;;;;18.67;62.17;101461.22;5006744;28;20056;-71
2023/06/09 00:58:59;;;;;;;;;;;;;;;18.68;62.24;101467.34;5009028;28;20057;-71
2023/06/09 01:01:28;;;;;;;7.75;2.95;;;;;;;18.64;62.21;101469.56;5025418;28;20274;-72
2023/06/09 01:03:55;;;;;;;11.38;3.40;;;;;;;18.64;62.78;101466.06;5015580;28;20064;-71
2023/06/09 01:06:32;;;;;;;10.35;3.53;;;;;;;18.57;63.17;101477.44;5025673;28;20057;-71
2023/06/09 01:09:02;;;;;;;7.13;2.80;;;;;;;18.60;62.01;101464.78;5009351;28;20051;-68
2023/06/09 01:11:36;;;;;;;8.35;3.15;;;;;;;18.56;62.93;101456.34;5021720;28;20092;-72
2023/06/09 01:14:17;;;;;;;13.40;4.05;;;;;;;18.56;63.63;101457.19;5016355;28;20072;-71
2023/06/09 01:16:57;;;;;;;8.25;3.35;;;;;;;18.53;62.81;101465.53;5024493;28;20053;-72
2023/06/09 01:19:33;;;;;;;8.60;3.53;;;;;;;18.51;63.38;101461.41;5019350;28;20049;-70
2023/06/09 01:22:02;;;;;;;12.15;3.53;;;;;;;18.39;64.35;101463.69;5019934;28;20053;-69
2023/06/09 01:24:47;;;;;;;10.07;3.22;;;;;;;18.36;64.71;101464.06;5018543;28;20048;-71
2023/06/09 01:27:17;;;;;;;10.57;3.25;;;;;;;18.28;64.76;101464.94;5014838;28;20087;-71
2023/06/09 01:29:45;;;;;;;10.23;3.30;;;;;;;18.28;65.01;101467.59;5026388;28;20049;-71
2023/06/09 01:32:15;;;;;;;10.15;3.70;;;;;;;18.23;65.09;101459.38;5018646;28;20477;-71
2023/06/09 01:34:43;;;;;;;9.55;3.38;;;;;;;18.21;65.86;101455.25;5022359;28;20056;-71
2023/06/09 01:37:11;;;;;;;9.60;3.20;;;;;;;18.12;65.99;101449.19;5013893;28;20753;-70
2023/06/09 01:39:39;;;;;;;6.68;2.65;;;;;;;18.11;65.30;101452.84;5023084;28;20486;-72
2023/06/09 01:42:06;;;;;;;13.13;3.58;;;;;;;18.06;66.39;101450.75;5022121;28;20141;-71
2023/06/09 01:44:36;;;;;;;12.38;3.97;;;;;;;18.01;66.17;101450.44;5014338;28;20091;-70
2023/06/09 01:47:03;;;;;;;10.68;3.00;;;;;;;18.01;66.08;101450.44;5026353;28;20077;-71
2023/06/09 01:49:55;;;;;;;8.05;3.22;;;;;;;17.98;66.80;101456.13;5014248;28;20042;-71
2023/06/09 01:52:33;;;;;;;8.23;3.33;;;;;;;17.98;66.96;101458.78;5016898;28;20569;-71
2023/06/09 01:55:09;;;;;;;14.10;3.88;;;;;;;17.94;67.56;101452.19;5020075;28;20552;-69
2023/06/09 01:57:46;;;;;;;9.88;3.55;;;;;;;17.87;68.19;101456.56;5026148;28;20045;-70
2023/06/09 02:00:14;;;;;;;11.63;3.67;;;;;;;17.77;68.38;101454.13;5016587;28;20100;-71
2023/06/09 02:02:41;;;;;;;10.75;3.80;;;;;;;17.65;70.18;101447.59;5021916;28;20049;-71
2023/06/09 02:05:10;;;;;;;9.32;3.22;;;;;;;17.57;69.58;101443.97;5020991;28;20056;-71
2023/06/09 02:07:39;;;;;;;13.88;3.33;;;;;;;17.55;69.82;101445.16;5017430;28;20770;-65
2023/06/09 02:10:08;;;;;;;9.75;3.60;;;;;;;17.55;69.79;101434.56;5023059;28;20531;-64
2023/06/09 02:12:35;;;;;;;7.45;2.92;;;;;;;17.55;69.54;101434.56;5015539;28;20140;-66
2023/06/09 02:15:02;;;;;;;12.13;3.50;;;;;;;17.46;69.02;101436.44;5023774;28;20050;-71
2023/06/09 02:17:32;;;;;;;14.57;3.85;;;;;;;17.44;69.25;101435.78;5016341;28;20072;-69
2023/06/09 02:19:59;;;;;;;10.73;3.58;;;;;;;17.43;69.40;101428.84;5005611;28;20144;-72
2023/06/09 02:22:26;;;;;;;10.10;3.65;;;;;;;17.43;70.54;101441.28;5012544;28;20604;-69
2023/06/09 02:24:52;;;;;;;10.23;3.53;;;;;;;17.36;68.84;101439.31;5020277;28;20421;-70
2023/06/09 02:27:19;;;;;;;9.77;3.65;;;;;;;17.32;70.34;101429.25;5011891;28;20064;-71
2023/06/09 02:29:45;;;;;;;10.07;3.80;;;;;;;17.29;71.19;101426.94;5011590;28;20500;-71
2023/06/09 02:32:12;;;;;;;8.82;3.60;;;;;;;17.22;71.18;101434.78;5022857;28;20581;-68
2023/06/09 02:34:38;;;;;;;13.93;4.10;;;;;;;17.19;72.10;101433.31;5019060;28;20045;-71
2023/06/09 02:37:07;;;;;;;10.88;3.53;;;;;;;17.20;72.40;101431.47;5025342;28;20143;-71
2023/06/09 02:39:36;;;;;;;;;;;;;;;17.18;72.03;101428.19;5026662;28;20088;-71
2023/06/09 02:42:03;;;;;;;18.10;3.65;;;;;;;17.13;71.76;101434.00;5019627;28;20007;-68
2023/06/09 02:44:31;;;;;;;8.65;3.40;;;;;;;17.11;72.23;101437.81;5020204;28;20081;-70
2023/06/09 02:46:59;;;;;;;9.90;3.90;;;;;;;17.05;72.94;101433.22;5015795;28;20133;-71
2023/06/09 02:49:26;;;;;;;12.55;3.83;;;;;;;17.04;72.77;101445.66;5023542;28;20050;-68
2023/06/09 02:51:52;;;;;;;7.10;3.20;;;;;;;17.05;72.88;101433.22;5020297;28;20088;-69
2023/06/09 02:54:19;;;;;;;11.20;3.72;;;;;;;17.02;73.42;101434.41;5029142;28;20049;-72
2023/06/09 02:56:45;;;;;;;11.55;3.30;;;;;;;17.04;71.78;101440.34;5027364;28;20080;-72
2023/06/09 02:59:12;;;;;;;13.98;3.97;;;;;;;16.93;74.32;101443.38;5014860;28;20486;-71
2023/06/09 03:01:39;;;;;;;11.55;3.67;;;;;;;16.90;73.93;101435.78;5024122;28;20059;-72
2023/06/09 03:04:08;;;;;;;12.30;3.97;;;;;;;16.83;73.56;101435.66;5021981;28;20378;-72
2023/06/09 03:06:36;;;;;;;13.07;4.07;;;;;;;16.88;73.58;101432.50;5027235;28;20048;-71
2023/06/09 03:09:03;;;;;;;10.38;3.58;;;;;;;16.84;74.04;101434.66;5023372;28;20052;-71
2023/06/09 03:11:30;;;;;;;8.20;2.90;;;;;;;16.85;73.78;101438.13;5021093;28;20056;-70
2023/06/09 03:13:57;;;;;;;14.75;3.28;;;;;;;16.80;74.11;101434.13;5021592;28;20280;-71
2023/06/09 03:16:23;;;;;;;16.23;3.95;;;;;;;16.74;75.59;101439.28;5019343;28;20158;-72
2023/06/09 03:18:50;;;;;;;12.50;3.17;;;;;;;16.75;74.24;101430.34;5027788;28;20277;-71
2023/06/09 03:21:17;;;;;;;12.60;4.20;;;;;;;16.68;75.95;101442.63;5020565;28;20814;-71
2023/06/09 03:23:43;;;;;;;12.85;3.75;;;;;;;16.71;75.45;101451.06;5029453;28;20050;-71
2023/06/09 03:26:09;;;;;;;10.18;3.83;;;;;;;16.66;75.32;101449.91;5015060;28;20037;-72
2023/06/09 03:28:36;;;;;;;11.50;3.80;;;;;;;16.62;76.21;101449.44;5023140;28;20129;-72
2023/06/09 03:31:02;;;;;;;11.43;3.83;;;;;;;16.59;76.20;101447.13;5026067;28;20140;-71
2023/06/09 03:33:29;;;;;;;9.88;3.85;;;;;;;16.61;77.00;101455.75;5019173;28;20052;-69
2023/06/09 03:35:56;;;;;;;12.65;4.03;;;;;;;16.50;76.38;101442.84;5024220;28;20080;-71
2023/06/09 03:38:22;;;;;;;9.85;3.50;;;;;;;16.61;74.56;101445.13;5022178;28;20038;-72
2023/06/09 03:40:49;;;;;;;13.35;3.90;;;;;;;16.56;76.41;101443.00;5021955;28;20060;-71
2023/06/09 03:43:15;;;;;;;20.30;3.92;;;;;;;16.58;75.73;101446.31;5017419;28;20059;-70
2023/06/09 03:45:42;;;;;;;13.85;3.88;;;;;;;16.51;75.97;101445.34;5025882;28;20053;-72
2023/06/09 03:48:09;;;;;;;10.60;3.70;;;;;;;16.51;76.37;101452.47;5027525;28;20057;-72
2023/06/09 03:50:35;;;;;;;9.20;3.70;;;;;;;16.55;76.13;101444.00;5019280;28;20057;-71
2023/06/09 03:53:02;;;;;;;10.00;3.33;;;;;;;16.57;75.83;101455.25;5027880;28;20057;-71
2023/06/09 03:55:31;;;;;;;11.73;3.85;;;;;;;16.58;76.81;101445.47;5014372;28;20057;-71
2023/06/09 03:57:58;;;;;;;12.18;4.07;;;;;;;16.50;77.86;101448.16;5024738;28;20655;-71
2023/06/09 04:00:25;;;;;;;10.57;3.33;;;;;;;16.52;76.43;101446.97;5019085;28;20548;-69
2023/06/09 04:02:51;;;;;;;12.63;3.72;;;;;;;16.46;77.80;101442.38;5020485;28;20573;-73
2023/06/09 04:05:18;;;;;;;13.15;3.92;;;;;;;16.47;78.61;101441.38;5026757;28;20139;-72
2023/06/09 04:07:44;;;;;;;11.73;4.20;;;;;;;16.50;77.86;101453.44;5014775;28;20785;-71
2023/06/09 04:10:11;;;;;;;10.95;4.65;;;;;;;16.49;79.30;101449.97;5022052;28;20103;-70
2023/06/09 04:12:39;;;;;;;10.07;3.22;;;;;;;16.45;77.60;101453.97;5020115;28;20541;-72
2023/06/09 04:15:06;;;;;;;9.63;3.50;;;;;;;16.45;76.97;101461.09;5026207;28;20060;-69
2023/06/09 04:17:34;;;;;;;12.07;4.07;;;;;;;16.44;79.04;101460.25;5022473;28;20306;-71
2023/06/09 04:20:01;;;;;;;13.73;4.17;;;;;;;16.39;81.24;101460.75;5026219;28;20055;-69
2023/06/09 04:22:28;;;;;;;11.20;4.05;;;;;;;16.38;81.53;101460.94;5000322;28;20565;-71
2023/06/09 04:24:54;;;;;;;12.70;4.43;;;;;;;16.35;81.22;101454.16;5016631;28;20053;-71
2023/06/09 04:27:23;;;;;;;10.10;3.42;;;;;;;16.41;78.30;101463.25;5024866;28;20057;-70
2023/06/09 04:29:50;;;;;;;11.75;4.90;;;;;;;16.39;83.34;101471.34;5019183;28;20081;-71
2023/06/09 04:32:16;;;;;;;10.05;4.60;;;;;;;16.40;83.15;101469.53;5021329;28;20054;-70
2023/06/09 04:34:46;;;;;;;10.98;4.20;;;;;;;16.39;83.56;101460.75;5023123;28;20103;-71
2023/06/09 04:37:13;;;;;;;16.23;5.05;;;;;;;16.35;82.85;101470.03;5018054;28;20057;-72
2023/06/09 04:39:41;;;;;;;12.50;4.35;;;;;;;16.41;82.42;101473.84;5021830;28;20064;-71
2023/06/09 04:42:08;;;;;;;13.20;4.17;;;;;;;16.39;83.70;101470.53;5018951;28;20563;-72
2023/06/09 04:44:35;;;;;;;12.82;4.22;;;;;;;16.32;84.54;101477.50;5025786;28;20470;-70
2023/06/09 04:47:02;;;;;;;11.73;4.63;;;;;;;16.32;84.48;101475.66;5019326;28;20077;-73
2023/06/09 04:49:31;;;;;;;13.85;4.07;;;;;;;16.35;82.75;101470.03;5024735;28;20049;-73
2023/06/09 04:51:59;;;;;;;12.73;3.97;;;;;;;16.41;84.87;101472.00;5017973;28;20560;-69
2023/06/09 04:54:28;;;;;;;13.32;4.45;;;;;;;16.40;84.76;101477.47;5018231;28;20053;-71
2023/06/09 04:56:57;;;;;;;16.30;5.38;;;;;;;16.35;85.94;101477.97;5023919;28;20569;-72
2023/06/09 04:59:24;;;;;;;15.43;4.72;;;;;;;16.35;85.64;101479.81;5001365;28;20059;-72
2023/06/09 05:01:52;;;;;;;12.32;4.63;;;;;;;16.32;87.63;101480.13;5024611;28;20085;-73
2023/06/09 05:04:19;;;;;;;12.07;4.03;;;;;;;16.36;86.01;101481.44;5015323;28;20103;-71
2023/06/09 05:06:45;;;;;;;14.85;5.20;;;;;;;16.38;86.80;101471.50;5020194;28;20041;-69
2023/06/09 05:09:12;;;;;;;16.48;4.63;;;;;;;16.39;85.59;101475.81;5024423;28;20132;-71
2023/06/09 05:11:39;;;;;;;15.65;5.50;;;;;;;16.44;84.66;101472.66;5017789;28;20045;-71
2023/06/09 05:14:05;;;;;;;13.07;4.50;;;;;;;16.47;85.63;101477.63;5025890;28;20054;-71
2023/06/09 05:16:34;;;;;;;20.13;5.60;;;;;;;16.49;87.79;101475.66;5022013;28;20065;-70
2023/06/09 05:19:02;;;;;;;16.58;4.30;;;;;;;16.49;86.94;101475.66;5025365;28;20176;-70
2023/06/09 05:21:28;;;;;;;15.70;5.70;;;;;;;16.51;87.12;101482.41;5014680;28;20133;-70
2023/06/09 05:23:55;;;;;;;16.00;5.00;;;;;;;16.58;86.41;101474.59;5029071;28;20057;-72
2023/06/09 05:26:22;;;;;;;10.55;4.25;;;;;;;16.58;85.60;101479.91;5023863;28;20046;-69
2023/06/09 05:28:49;;;;;;;15.52;5.47;;;;;;;16.63;87.63;101476.75;5029644;28;20895;-68
2023/06/09 05:31:16;;;;;;;19.02;5.30;;;;;;;16.68;84.60;101477.06;5028768;28;20291;-70
2023/06/09 05:33:43;;;;;;;15.40;4.97;;;;;;;16.75;85.39;101484.16;5022617;28;20041;-71
2023/06/09 05:36:12;;;;;;;15.50;5.45;;;;;;;16.75;87.77;101485.97;5027158;28;20053;-72
2023/06/09 05:38:38;;;;;;;16.90;5.53;;;;;;;16.74;89.57;101484.31;5023186;28;20107;-71
2023/06/09 05:41:05;;;;;;;19.40;5.93;;;;;;;16.80;88.51;101483.66;5028967;28;20085;-70
2023/06/09 05:43:32;;;;;;;15.88;5.75;;;;;;;16.83;86.85;101483.34;5030636;28;20136;-72
2023/06/09 05:45:59;;;;;;;11.77;5.30;;;;;;;16.91;88.14;101485.94;5020397;28;20119;-70
2023/06/09 05:48:25;;;;;;;14.82;6.57;;;;;;;16.90;88.45;101486.97;5024249;28;20081;-72
2023/06/09 05:50:52;;;;;;;15.40;7.03;;;;;;;16.93;90.82;101486.59;5020051;28;20151;-70
2023/06/09 05:53:18;;;;;;;14.65;6.10;;;;;;;16.99;89.68;101482.44;5030450;28;20088;-72
2023/06/09 05:55:45;;;;;;;15.77;5.70;;;;;;;16.97;88.25;101479.13;5021649;28;20132;-71
2023/06/09 05:58:13;;;;;;;18.58;5.95;;;;;;;17.07;89.63;101481.56;5026808;28;20539;-71
2023/06/09 06:00:40;;;;;;;22.25;7.22;;;;;;;17.05;89.86;101479.09;5004738;28;20053;-69
2023/06/09 06:03:08;;;;;;;13.98;5.85;;;;;;;17.08;89.93;101488.53;5016341;28;20049;-70
2023/06/09 06:05:35;;;;;;;;;;;;;;;17.12;90.22;101484.53;5027063;28;20042;-70
2023/06/09 06:08:01;;;;;;;13.65;5.70;;;;;;;17.18;89.27;101483.84;5018586;28;19925;-72
2023/06/09 06:10:28;;;;;;;11.68;5.38;;;;;;;17.18;89.46;101475.91;5021157;28;20042;-70
2023/06/09 06:12:58;;;;;;;11.88;5.20;;;;;;;17.28;89.19;101480.97;5023269;28;20064;-69
2023/06/09 06:15:24;;;;;;;15.38;6.45;;;;;;;17.34;90.70;101480.28;5021268;28;20833;-70
2023/06/09 06:17:51;;;;;;;14.07;5.63;;;;;;;17.36;90.95;101480.94;5024932;28;20076;-71
2023/06/09 06:20:18;;;;;;;19.08;6.38;;;;;;;17.42;92.32;101484.72;5015608;28;20170;-71
2023/06/09 06:22:44;;;;;;;18.65;7.18;;;;;;;17.44;92.09;101480.06;5025946;28;20078;-69
2023/06/09 06:25:13;;;;;;;14.85;6.70;;;;;;;17.47;92.71;101472.56;5019556;28;20053;-68
2023/06/09 06:27:41;;;;;;;17.40;6.88;;;;;;;17.54;91.04;101472.69;5006773;28;20207;-70
2023/06/09 06:30:09;;;;;;;13.93;5.78;;;;;;;17.65;91.51;101468.81;5017077;28;20041;-72
2023/06/09 06:32:38;;;;;;;18.63;7.30;;;;;;;17.71;92.25;101465.44;5028344;28;20048;-73
2023/06/09 06:35:05;;;;;;;15.35;6.20;;;;;;;17.74;91.69;101473.88;5023707;28;20049;-69
2023/06/09 06:37:33;;;;;;;15.95;6.30;;;;;;;17.82;89.71;101474.78;5022687;28;20060;-71
2023/06/09 06:39:59;;;;;;;15.55;7.18;;;;;;;17.90;90.19;101477.44;5030135;28;20417;-72
2023/06/09 06:42:26;;;;;;;10.43;4.35;;;;;;;17.96;86.93;101482.84;5018628;28;20144;-72
2023/06/09 06:44:52;;;;;;;14.68;6.88;;;;;;;18.02;88.14;101480.50;5024719;28;20045;-71
2023/06/09 06:47:23;;;;;;;15.38;7.28;;;;;;;18.01;90.58;101476.16;5005226;28;20064;-72
2023/06/09 06:49:50;;;;;;;15.52;6.55;;;;;;;18.08;88.82;101477.13;5009546;28;20049;-71
2023/06/09 06:52:16;;;;;;;15.40;7.35;;;;;;;18.11;88.67;101479.38;5030198;28;20042;-71
2023/06/09 06:54:43;;;;;;;14.77;6.95;;;;;;;18.19;88.33;101476.69;5023388;28;20079;-71
2023/06/09 06:57:09;;;;;;;16.25;6.72;;;;;;;18.26;88.21;101472.28;5007481;28;20049;-72
2023/06/09 06:59:37;;;;;;;15.00;7.10;;;;;;;18.35;87.26;101473.84;5018328;28;20050;-72
2023/06/09 07:02:04;;;;;;;12.55;6.60;;;;;;;18.40;87.79;101481.28;5011412;28;20084;-70
2023/06/09 07:04:31;;;;;;;13.07;6.70;;;;;;;18.48;86.68;101475.03;5021317;28;20045;-70
2023/06/09 07:06:57;;;;;;;15.73;6.68;;;;;;;18.57;87.77;101484.59;5028172;28;20321;-70
2023/06/09 07:09:25;;;;;;;10.10;5.47;;;;;;;18.63;86.56;101477.72;5028446;28;20134;-73
2023/06/09 07:11:51;;;;;;;14.82;6.50;;;;;;;18.71;87.90;101483.75;5017053;28;20141;-71
2023/06/09 07:14:18;;;;;;;14.63;6.18;;;;;;;18.79;87.32;101472.19;5025529;28;20080;-71
2023/06/09 07:16:45;;;;;;;12.68;6.88;;;;;;;18.88;86.87;101476.44;5018246;28;20513;-71
2023/06/09 07:19:12;;;;;;;15.23;6.77;;;;;;;18.94;84.67;101478.34;5007222;28;20049;-71
2023/06/09 07:21:39;;;;;;;15.60;6.50;;;;;;;19.01;85.87;101475.78;5005570;28;20515;-71
2023/06/09 07:24:06;;;;;;;11.80;5.88;;;;;;;19.07;84.26;101477.72;5007369;28;20072;-71
2023/06/09 07:26:33;;;;;;;14.32;7.15;;;;;;;19.13;87.31;101474.28;5023426;28;20045;-71
2023/06/09 07:28:59;;;;;;;13.05;6.85;;;;;;;19.24;84.96;101480.13;5022184;28;20068;-70
2023/06/09 07:31:27;;;;;;;16.10;7.80;;;;;;;19.30;85.44;101474.06;5028248;28;20080;-70
2023/06/09 07:33:54;;;;;;;17.58;7.68;;;;;;;19.34;86.50;101465.50;5021271;28;20088;-72
2023/06/09 07:36:21;;;;;;;14.70;7.07;;;;;;;19.39;85.22;101472.94;5010517;28;20486;-72
2023/06/09 07:38:47;;;;;;;11.82;6.72;;;;;;;19.44;85.28;101462.53;5017010;28;20041;-71
2023/06/09 07:41:17;;;;;;;12.10;6.45;;;;;;;19.56;83.06;101469.03;5004687;28;20049;-72
2023/06/09 07:43:44;;;;;;;18.23;6.63;;;;;;;19.63;84.38;101466.41;5028131;28;20058;-71
2023/06/09 07:46:14;;;;;;;10.48;5.40;;;;;;;19.71;81.47;101476.94;5022280;28;20087;-71
2023/06/09 07:48:42;;;;;;;14.48;6.85;;;;;;;19.83;83.37;101476.44;5026516;28;20659;-70
2023/06/09 07:51:09;;;;;;;15.30;7.20;;;;;;;19.89;83.94;101470.34;5017538;28;20045;-72
2023/06/09 07:53:37;;;;;;;10.73;5.47;;;;;;;19.97;80.00;101464.88;4997924;28;20096;-68
2023/06/09 07:56:04;;;;;;;14.32;7.45;;;;;;;20.05;83.60;101472.75;5002565;28;20061;-69
2023/06/09 07:58:31;;;;;;;16.48;6.60;;;;;;;20.12;83.46;101465.63;5024425;28;20465;-69
2023/06/09 08:00:58;;;;;;;16.90;7.18;;;;;;;20.24;82.50;101473.88;5025716;28;20057;-68
2023/06/09 08:03:24;;;;;;;18.48;7.55;;;;;;;20.36;82.47;101471.50;5001570;28;20053;-72
2023/06/09 08:05:51;;;;;;;12.52;6.93;;;;;;;20.46;82.31;101477.31;5023947;28;20153;-70
2023/06/09 08:08:18;;;;;;;14.30;7.10;;;;;;;20.63;78.78;101474.38;5015601;28;20049;-71
2023/06/09 08:10:44;;;;;;;19.40;8.40;;;;;;;20.70;80.98;101481.38;5025436;28;20095;-72
2023/06/09 08:13:14;;;;;;;12.98;7.63;;;;;;;20.78;81.20;101474.22;5014971;28;20602;-72
2023/06/09 08:15:41;;;;;;;16.50;7.65;;;;;;;20.84;79.52;101479.59;5024045;28;20545;-69
2023/06/09 08:18:08;;;;;;;12.52;7.18;;;;;;;20.94;81.28;101485.38;5023826;28;20493;-71
2023/06/09 08:20:35;;;;;;;14.32;7.30;;;;;;;21.06;79.55;101480.28;5011307;28;20055;-72
2023/06/09 08:23:02;;;;;;;12.65;7.30;;;;;;;21.20;80.16;101478.50;5025180;28;20267;-68
2023/06/09 08:25:28;;;;;;;13.37;6.20;;;;;;;21.33;78.51;101475.88;5019500;28;20049;-73
2023/06/09 08:27:55;;;;;;;17.30;7.72;;;;;;;21.56;78.60;101474.72;5022169;28;20546;-71
2023/06/09 08:30:21;;;;;;;13.38;6.57;;;;;;;21.82;76.28;101475.75;5019950;28;20045;-69
2023/06/09 08:32:48;;;;;;;14.75;7.72;;;;;;;22.10;73.54;101471.00;5016855;28;20133;-71
2023/06/09 08:35:15;;;;;;;18.50;8.00;;;;;;;;;;5022020;28;20061;-72
2023/06/09 08:37:42;;;;;;;10.55;6.25;;;;;;;22.92;69.29;101464.47;5018382;28;20054;-70
2023/06/09 08:40:09;;;;;;;15.10;7.32;;;;;;;23.35;68.48;101456.63;5008108;28;20045;-70
2023/06/09 08:42:37;;;;;;;12.77;6.65;;;;;;;23.79;65.34;101459.44;5020224;28;20496;-70
2023/06/09 08:45:05;;;;;;;13.65;7.80;;;;;;;24.18;64.32;101458.22;5026530;28;20057;-71
2023/06/09 08:47:36;;;;;;;13.35;7.43;;;;;;;24.58;63.11;101454.31;5014893;28;20134;-69
2023/06/09 08:50:03;;;;;;;12.85;8.07;;;;;;;24.95;60.44;101447.06;5017052;28;20053;-70
2023/06/09 08:52:30;;;;;;;14.45;7.45;;;;;;;25.32;61.31;101454.22;5026517;28;20115;-71
2023/06/09 08:54:58;;;;;;;17.95;7.47;;;;;;;25.72;60.15;101449.03;5019145;28;20200;-68
2023/06/09 08:57:25;;;;;;;16.10;7.90;;;;;;;26.03;58.69;101450.59;5025116;28;20291;-71
2023/06/09 08:59:53;;;;;;;15.50;7.40;;;;;;;26.31;57.40;101454.44;5017968;28;20096;-70
2023/06/09 09:02:19;;;;;;;13.27;7.28;;;;;;;26.61;56.34;101454.28;5018513;28;20056;-67
2023/06/09 09:04:46;;;;;;;12.35;7.45;;;;;;;26.88;55.92;101444.84;5021664;28;20088;-69
2023/06/09 09:07:13;;;;;;;13.07;7.30;;;;;;;27.16;54.84;101449.38;5007215;28;20049;-71
2023/06/09 09:09:41;;;;;;;13.95;7.30;;;;;;;27.50;53.95;101449.44;5024211;28;20057;-70
2023/06/09 09:12:14;;;;;;;16.67;7.43;;;;;;;27.70;52.99;101446.28;5019664;28;20041;-72
2023/06/09 09:14:44;;;;;;;14.23;6.40;;;;;;;27.97;53.45;101444.56;5011774;28;20057;-70
2023/06/09 09:17:12;;;;;;;15.38;7.35;;;;;;;28.17;52.01;101438.63;5002981;28;20078;-71
2023/06/09 09:19:45;;;;;;;14.77;7.63;;;;;;;28.34;51.61;101449.34;5024190;28;20045;-72
2023/06/09 09:22:12;;;;;;;11.30;7.40;;;;;;;28.56;50.62;101459.34;5017645;28;20046;-69
2023/06/09 09:24:46;;;;;;;15.47;7.47;;;;;;;28.74;50.27;101445.56;5025635;28;20041;-70
2023/06/09 09:27:17;;;;;;;13.60;7.28;;;;;;;28.90;49.77;101448.41;5018742;28;20302;-72
2023/06/09 09:29:45;;;;;;;14.43;8.27;;;;;;;28.99;48.96;101436.06;5013395;28;20137;-71
2023/06/09 09:32:13;;;;;;;14.35;7.85;;;;;;;29.15;49.22;101445.19;5017287;28;20077;-71
2023/06/09 09:34:41;;;;;;;13.65;6.82;;;;;;;29.31;49.39;101451.53;5016420;28;20556;-70
2023/06/09 09:37:13;;;;;;;15.48;7.88;;;;;;;29.36;48.87;101446.16;5021537;28;20516;-70
2023/06/09 09:39:50;;;;;;;11.07;7.30;;;;;;;29.36;46.85;101441.59;5017267;28;20061;-71
2023/06/09 09:42:19;;;;;;;11.63;7.18;;;;;;;29.49;46.95;101437.63;5020139;28;20045;-69
2023/06/09 09:44:47;;;;;;;16.83;7.88;;;;;;;29.70;47.52;101433.19;5006512;28;20099;-68
2023/06/09 09:47:15;;;;;;;15.75;7.45;;;;;;;29.82;47.49;101434.94;5020050;28;20053;-71
2023/06/09 09:49:50;;;;;;;16.33;7.55;;;;;;;30.02;47.68;101432.34;5022099;28;20549;-69
2023/06/09 09:52:24;;;;;;;11.45;7.78;;;;;;;30.21;46.79;101434.59;5017584;28;20140;-69
2023/06/09 09:54:53;;;;;;;11.93;7.35;;;;;;;30.29;47.02;101428.69;5023891;28;20049;-70
2023/06/09 09:57:21;;;;;;;12.73;6.63;;;;;;;30.46;47.05;101425.78;4997635;28;20072;-71
2023/06/09 09:59:48;;;;;;;10.13;7.03;;;;;;;30.57;44.91;101426.66;5018867;28;20060;-71
2023/06/09 10:02:21;;;;;;;11.50;7.28;;;;;;;30.72;44.90;101426.69;5020068;28;20110;-71
2023/06/09 10:04:50;;;;;;;13.75;7.30;;;;;;;30.88;45.02;101425.63;5027828;28;20123;-70
2023/06/09 10:07:23;;;;;;;12.48;7.10;;;;;;;30.99;44.83;101414.84;5026945;28;20067;-70
2023/06/09 10:09:53;;;;;;;11.65;6.88;;;;;;;31.09;44.72;101415.66;5018343;28;20045;-67
2023/06/09 10:12:20;;;;;;;9.88;6.13;;;;;;;31.25;45.14;101410.25;5022121;28;20128;-70
2023/06/09 10:14:50;;;;;;;13.68;6.35;;;;;;;31.43;44.26;101417.03;5001299;28;20056;-68
2023/06/09 10:17:20;;;;;;;12.68;7.20;;;;;;;31.36;43.54;101409.16;5026338;28;20071;-70
2023/06/09 10:19:51;;;;;;;12.48;6.97;;;;;;;31.50;44.11;101418.41;5021539;28;20037;-68
2023/06/09 10:22:19;;;;;;;10.50;6.25;;;;;;;31.49;42.48;101416.75;5028824;28;20649;-69
2023/06/09 10:24:46;;;;;;;11.27;6.82;;;;;;;31.60;43.14;101414.03;5020231;28;20136;-69
2023/06/09 10:27:14;;;;;;;11.15;6.22;;;;;;;31.63;43.87;101416.22;5015035;28;20072;-69
2023/06/09 10:29:41;;;;;;;10.27;6.00;;;;;;;31.65;43.05;101401.28;5028285;28;20037;-70
2023/06/09 10:32:10;;;;;;;8.60;6.57;;;;;;;31.80;42.09;101414.00;5020109;28;20053;-68
2023/06/09 10:34:38;;;;;;;10.65;6.30;;;;;;;31.99;43.20;101416.09;5028149;28;20108;-69
2023/06/09 10:37:06;;;;;;;14.85;6.88;;;;;;;31.91;41.03;101407.47;5020892;28;20886;-70
2023/06/09 10:39:52;;;;;;;;;;;;;;;32.04;42.25;101411.50;5004341;28;20145;-68
2023/06/09 10:42:52;;;;;;;11.93;6.00;;;;;;;32.09;41.35;101400.66;5026532;28;20365;-68
2023/06/09 10:45:19;;;;;;;10.55;5.97;;;;;;;32.20;41.95;101406.84;4993086;28;20064;-68
2023/06/09 10:47:48;;;;;;;8.93;5.95;;;;;;;32.25;40.79;101398.69;5015884;28;20054;-68
2023/06/09 10:50:30;;;;;;;8.57;4.88;;;;;;;32.35;40.69;101399.72;5014281;28;20046;-69
2023/06/09 10:52:58;;;;;;;9.95;5.55;;;;;;;32.47;39.96;101401.00;5024028;28;20056;-67
2023/06/09 10:55:30;;;;;;;8.25;5.93;;;;;;;32.57;39.65;101396.66;5017046;28;20059;-68
2023/06/09 10:57:57;;;;;;;9.13;5.53;;;;;;;32.66;40.06;101397.69;5027277;28;20201;-69
2023/06/09 11:00:25;;;;;;;11.43;6.15;;;;;;;32.83;39.83;101392.69;5021069;28;20108;-71
2023/06/09 11:03:08;;;;;;;7.45;5.43;;;;;;;32.90;38.33;101389.63;5007550;28;20096;-70
2023/06/09 11:05:43;;;;;;;7.55;5.10;;;;;;;33.05;39.37;101385.97;5023528;28;20072;-68
2023/06/09 11:08:09;;;;;;;12.63;5.53;;;;;;;33.18;38.83;101376.38;5018374;28;20052;-70
2023/06/09 11:10:36;;;;;;;8.13;5.17;;;;;;;33.21;38.82;101383.97;5009482;28;20045;-70
2023/06/09 11:13:37;;;;;;;7.25;5.15;;;;;;;33.43;38.89;101381.59;5020956;28;20061;-70
2023/06/09 11:16:03;;;;;;;9.05;5.03;;;;;;;33.63;38.67;101368.91;5023605;28;20565;-69
2023/06/09 11:18:31;;;;;;;12.57;5.27;;;;;;;33.76;38.54;101370.94;5019598;28;20046;-70
2023/06/09 11:21:09;;;;;;;8.32;5.30;;;;;;;33.61;37.99;101365.63;5022225;28;20364;-70
2023/06/09 11:24:00;;;;;;;9.63;5.18;;;;;;;33.73;37.31;101362.53;5016042;28;20509;-70